WZZ411 LATI-LHBP
Flight info
| Callsign | WZZ411 |
|---|---|
| Flight time | 1h 11m |
| Altitude | 38000 |
| Route | RINAV DCT ALELU DCT VAL DCT PARAK DCT KEZAL |
| Aircraft | A321/M-SDE1E2E3FGIJ1J4RWXY/LB1 |
Departure
| Time | 2026-05-04 18:52 |
|---|---|
| Airport | Tirana International Airport Mother Teresa (LATI) |
Arrival
| Time | 2026-05-04 20:04 |
|---|---|
| Airport | Budapest Liszt Ferenc International Airport (LHBP) |
| Time | Latitude | Longitude | Altitude | Speed | Heading |
|---|---|---|---|---|---|
| 2026-05-04 18:27 | 41.41988 | 19.71514 | 120 ft | 0 kts | 264° |
| 2026-05-04 18:42 | 41.41990 | 19.71532 | 119 ft | 2 kts | 263° |
| 2026-05-04 18:42 | 41.41996 | 19.71562 | 120 ft | 4 kts | 221° |
| 2026-05-04 18:42 | 41.42018 | 19.71571 | 119 ft | 4 kts | 175° |
| 2026-05-04 18:43 | 41.42029 | 19.71570 | 120 ft | 1 kts | 174° |
| 2026-05-04 18:43 | 41.42030 | 19.71570 | 120 ft | 0 kts | 174° |
| 2026-05-04 18:45 | 41.42023 | 19.71571 | 120 ft | 4 kts | 175° |
| 2026-05-04 18:45 | 41.41976 | 19.71575 | 122 ft | 10 kts | 176° |
| 2026-05-04 18:45 | 41.41890 | 19.71586 | 120 ft | 14 kts | 173° |
| 2026-05-04 18:46 | 41.41805 | 19.71600 | 121 ft | 11 kts | 174° |
| 2026-05-04 18:46 | 41.41735 | 19.71610 | 125 ft | 9 kts | 174° |
| 2026-05-04 18:46 | 41.41675 | 19.71617 | 122 ft | 8 kts | 175° |
| 2026-05-04 18:46 | 41.41614 | 19.71625 | 122 ft | 9 kts | 174° |
| 2026-05-04 18:47 | 41.41545 | 19.71634 | 123 ft | 11 kts | 174° |
| 2026-05-04 18:47 | 41.41468 | 19.71645 | 125 ft | 12 kts | 174° |
| 2026-05-04 18:47 | 41.41383 | 19.71658 | 127 ft | 13 kts | 174° |
| 2026-05-04 18:47 | 41.41290 | 19.71672 | 125 ft | 14 kts | 174° |
| 2026-05-04 18:48 | 41.41188 | 19.71687 | 127 ft | 15 kts | 174° |
| 2026-05-04 18:48 | 41.41078 | 19.71703 | 126 ft | 16 kts | 174° |
| 2026-05-04 18:48 | 41.40968 | 19.71719 | 130 ft | 17 kts | 174° |
| 2026-05-04 18:48 | 41.40874 | 19.71736 | 131 ft | 12 kts | 169° |
| 2026-05-04 18:49 | 41.40787 | 19.71758 | 132 ft | 13 kts | 173° |
| 2026-05-04 18:49 | 41.40689 | 19.71773 | 132 ft | 15 kts | 174° |
| 2026-05-04 18:49 | 41.40607 | 19.71784 | 132 ft | 6 kts | 174° |
| 2026-05-04 18:49 | 41.40560 | 19.71790 | 132 ft | 8 kts | 174° |
| 2026-05-04 18:50 | 41.40500 | 19.71797 | 132 ft | 9 kts | 174° |
| 2026-05-04 18:50 | 41.40429 | 19.71807 | 132 ft | 11 kts | 172° |
| 2026-05-04 18:50 | 41.40360 | 19.71852 | 133 ft | 11 kts | 142° |
| 2026-05-04 18:50 | 41.40301 | 19.71912 | 133 ft | 11 kts | 143° |
| 2026-05-04 18:51 | 41.40244 | 19.71985 | 133 ft | 12 kts | 119° |
| 2026-05-04 18:51 | 41.40243 | 19.72089 | 133 ft | 10 kts | 84° |
| 2026-05-04 18:51 | 41.40261 | 19.72192 | 133 ft | 12 kts | 54° |
| 2026-05-04 18:51 | 41.40330 | 19.72211 | 132 ft | 11 kts | 356° |
| 2026-05-04 18:52 | 41.40458 | 19.72194 | 132 ft | 44 kts | 354° |
| 2026-05-04 18:52 | 41.41037 | 19.72115 | 133 ft | 120 kts | 354° |
| 2026-05-04 18:52 | 41.42058 | 19.71975 | 283 ft | 162 kts | 354° |
| 2026-05-04 18:52 | 41.43152 | 19.71823 | 1104 ft | 157 kts | 355° |
| 2026-05-04 18:53 | 41.44262 | 19.71709 | 1736 ft | 168 kts | 356° |
| 2026-05-04 18:53 | 41.45504 | 19.71591 | 2166 ft | 191 kts | 356° |
| 2026-05-04 18:53 | 41.46906 | 19.71455 | 2532 ft | 213 kts | 356° |
| 2026-05-04 18:53 | 41.48471 | 19.71299 | 2808 ft | 239 kts | 355° |
| 2026-05-04 18:54 | 41.50207 | 19.71118 | 3292 ft | 259 kts | 355° |
| 2026-05-04 18:54 | 41.51996 | 19.70928 | 4104 ft | 263 kts | 356° |
| 2026-05-04 18:54 | 41.53827 | 19.70734 | 5011 ft | 265 kts | 357° |
| 2026-05-04 18:54 | 41.55677 | 19.70757 | 5861 ft | 267 kts | 6° |
| 2026-05-04 18:55 | 41.57528 | 19.71052 | 6737 ft | 269 kts | 9° |
| 2026-05-04 18:55 | 41.61245 | 19.71859 | 8440 ft | 273 kts | 9° |
| 2026-05-04 18:55 | 41.63142 | 19.72112 | 9291 ft | 275 kts | 5° |
| 2026-05-04 18:56 | 41.65058 | 19.72277 | 10139 ft | 277 kts | 4° |
| 2026-05-04 18:56 | 41.67025 | 19.72419 | 10601 ft | 293 kts | 4° |
| 2026-05-04 18:56 | 41.69142 | 19.72569 | 10860 ft | 315 kts | 4° |
| 2026-05-04 18:56 | 41.71362 | 19.72727 | 11464 ft | 322 kts | 4° |
| 2026-05-04 18:57 | 41.73612 | 19.72888 | 12222 ft | 325 kts | 4° |
| 2026-05-04 18:57 | 41.75882 | 19.73054 | 13004 ft | 328 kts | 4° |
| 2026-05-04 18:57 | 41.78163 | 19.73229 | 13789 ft | 330 kts | 4° |
| 2026-05-04 18:57 | 41.80461 | 19.73406 | 14496 ft | 331 kts | 4° |
| 2026-05-04 18:58 | 41.82775 | 19.73583 | 15146 ft | 335 kts | 4° |
| 2026-05-04 18:58 | 41.85107 | 19.73761 | 15833 ft | 337 kts | 4° |
| 2026-05-04 18:58 | 41.87463 | 19.73945 | 16512 ft | 341 kts | 4° |
| 2026-05-04 18:58 | 41.89841 | 19.74130 | 17204 ft | 344 kts | 4° |
| 2026-05-04 18:59 | 41.92246 | 19.74317 | 17815 ft | 348 kts | 4° |
| 2026-05-04 18:59 | 41.94682 | 19.74501 | 18445 ft | 352 kts | 3° |
| 2026-05-04 18:59 | 41.97143 | 19.74686 | 19002 ft | 356 kts | 3° |
| 2026-05-04 18:59 | 41.99591 | 19.74873 | 19580 ft | 358 kts | 3° |
| 2026-05-04 19:00 | 42.02088 | 19.75067 | 20168 ft | 361 kts | 3° |
| 2026-05-04 19:00 | 42.04606 | 19.75261 | 20743 ft | 364 kts | 3° |
| 2026-05-04 19:00 | 42.07172 | 19.75457 | 21372 ft | 366 kts | 3° |
| 2026-05-04 19:00 | 42.09726 | 19.75654 | 21974 ft | 368 kts | 3° |
| 2026-05-04 19:01 | 42.12295 | 19.75854 | 22541 ft | 372 kts | 3° |
| 2026-05-04 19:01 | 42.14892 | 19.76053 | 23114 ft | 375 kts | 2° |
| 2026-05-04 19:01 | 42.17473 | 19.76251 | 23665 ft | 378 kts | 2° |
| 2026-05-04 19:01 | 42.20109 | 19.76457 | 24121 ft | 381 kts | 2° |
| 2026-05-04 19:02 | 42.22769 | 19.76663 | 24573 ft | 384 kts | 2° |
| 2026-05-04 19:02 | 42.25478 | 19.76873 | 25033 ft | 386 kts | 2° |
| 2026-05-04 19:02 | 42.28165 | 19.77085 | 25479 ft | 388 kts | 2° |
| 2026-05-04 19:02 | 42.30865 | 19.77300 | 25893 ft | 390 kts | 2° |
| 2026-05-04 19:03 | 42.33587 | 19.77515 | 26321 ft | 393 kts | 2° |
| 2026-05-04 19:03 | 42.36325 | 19.77731 | 26749 ft | 395 kts | 2° |
| 2026-05-04 19:03 | 42.39075 | 19.77947 | 27180 ft | 397 kts | 2° |
| 2026-05-04 19:03 | 42.41805 | 19.78161 | 27596 ft | 399 kts | 2° |
| 2026-05-04 19:04 | 42.44585 | 19.78379 | 27998 ft | 402 kts | 2° |
| 2026-05-04 19:04 | 42.47382 | 19.78600 | 28403 ft | 404 kts | 2° |
| 2026-05-04 19:04 | 42.50198 | 19.78821 | 28783 ft | 407 kts | 2° |
| 2026-05-04 19:04 | 42.53032 | 19.79045 | 29201 ft | 409 kts | 2° |
| 2026-05-04 19:05 | 42.55879 | 19.79269 | 29597 ft | 411 kts | 1° |
| 2026-05-04 19:05 | 42.58742 | 19.79489 | 29981 ft | 413 kts | 2° |
| 2026-05-04 19:05 | 42.61618 | 19.79710 | 30334 ft | 415 kts | 2° |
| 2026-05-04 19:05 | 42.64510 | 19.79937 | 30678 ft | 417 kts | 2° |
| 2026-05-04 19:06 | 42.67408 | 19.80169 | 31055 ft | 418 kts | 2° |
| 2026-05-04 19:06 | 42.70323 | 19.80402 | 31362 ft | 421 kts | 2° |
| 2026-05-04 19:06 | 42.73259 | 19.80636 | 31650 ft | 424 kts | 2° |
| 2026-05-04 19:06 | 42.76203 | 19.80869 | 32067 ft | 423 kts | 2° |
| 2026-05-04 19:07 | 42.79140 | 19.81100 | 32509 ft | 422 kts | 2° |
| 2026-05-04 19:07 | 42.82073 | 19.81333 | 32921 ft | 422 kts | 2° |
| 2026-05-04 19:07 | 42.85006 | 19.81566 | 33124 ft | 423 kts | 2° |
| 2026-05-04 19:07 | 42.87938 | 19.81799 | 33148 ft | 422 kts | 2° |
| 2026-05-04 19:08 | 42.93800 | 19.82264 | 33149 ft | 422 kts | 2° |
| 2026-05-04 19:08 | 42.99663 | 19.82730 | 33144 ft | 422 kts | 2° |
| 2026-05-04 19:09 | 43.05519 | 19.83198 | 33141 ft | 422 kts | 2° |
| 2026-05-04 19:09 | 43.11377 | 19.83674 | 33135 ft | 422 kts | 2° |
| 2026-05-04 19:10 | 43.17236 | 19.84144 | 33137 ft | 422 kts | 2° |
| 2026-05-04 19:10 | 43.20174 | 19.84377 | 33450 ft | 422 kts | 2° |
| 2026-05-04 19:10 | 43.23102 | 19.84613 | 33892 ft | 421 kts | 2° |
| 2026-05-04 19:11 | 43.26028 | 19.84848 | 34283 ft | 421 kts | 2° |
| 2026-05-04 19:11 | 43.28950 | 19.85082 | 34618 ft | 421 kts | 2° |
| 2026-05-04 19:11 | 43.31873 | 19.85318 | 34952 ft | 421 kts | 2° |
| 2026-05-04 19:11 | 43.34798 | 19.85556 | 35250 ft | 421 kts | 2° |
| 2026-05-04 19:12 | 43.37728 | 19.85793 | 35550 ft | 422 kts | 2° |
| 2026-05-04 19:12 | 43.43593 | 19.86263 | 36198 ft | 422 kts | 2° |
| 2026-05-04 19:12 | 43.46528 | 19.86500 | 36519 ft | 422 kts | 2° |
| 2026-05-04 19:13 | 43.49462 | 19.86739 | 36817 ft | 423 kts | 2° |
| 2026-05-04 19:13 | 43.52402 | 19.86977 | 37071 ft | 424 kts | 2° |
| 2026-05-04 19:13 | 43.55308 | 19.87213 | 37117 ft | 424 kts | 2° |
| 2026-05-04 19:14 | 43.61230 | 19.87693 | 37115 ft | 423 kts | 2° |
| 2026-05-04 19:14 | 43.67076 | 19.88172 | 37109 ft | 424 kts | 2° |
| 2026-05-04 19:15 | 43.72964 | 19.88652 | 37103 ft | 424 kts | 2° |
| 2026-05-04 19:15 | 43.78860 | 19.89130 | 37103 ft | 424 kts | 2° |
| 2026-05-04 19:16 | 43.84750 | 19.89615 | 37097 ft | 424 kts | 2° |
| 2026-05-04 19:16 | 43.90650 | 19.90102 | 37097 ft | 425 kts | 2° |
| 2026-05-04 19:17 | 43.96549 | 19.90589 | 37093 ft | 426 kts | 2° |
| 2026-05-04 19:17 | 44.02469 | 19.91074 | 37092 ft | 426 kts | 2° |
| 2026-05-04 19:18 | 44.08386 | 19.91562 | 37093 ft | 426 kts | 2° |
| 2026-05-04 19:18 | 44.14307 | 19.92055 | 37090 ft | 426 kts | 2° |
| 2026-05-04 19:19 | 44.20229 | 19.92549 | 37089 ft | 426 kts | 2° |
| 2026-05-04 19:19 | 44.26139 | 19.93047 | 37090 ft | 425 kts | 2° |
| 2026-05-04 19:20 | 44.32044 | 19.93540 | 37081 ft | 425 kts | 2° |
| 2026-05-04 19:20 | 44.36954 | 19.93950 | 37081 ft | 425 kts | 2° |
| 2026-05-04 19:21 | 44.42862 | 19.94437 | 37086 ft | 425 kts | 2° |
| 2026-05-04 19:21 | 44.48766 | 19.94929 | 37080 ft | 425 kts | 2° |
| 2026-05-04 19:22 | 44.54667 | 19.95432 | 37082 ft | 425 kts | 2° |
| 2026-05-04 19:22 | 44.60578 | 19.95926 | 37079 ft | 426 kts | 2° |
| 2026-05-04 19:23 | 44.66501 | 19.96416 | 37080 ft | 426 kts | 2° |
| 2026-05-04 19:23 | 44.72426 | 19.96918 | 37079 ft | 427 kts | 2° |
| 2026-05-04 19:24 | 44.78351 | 19.97427 | 37080 ft | 427 kts | 2° |
| 2026-05-04 19:24 | 44.84276 | 19.97938 | 37083 ft | 426 kts | 2° |
| 2026-05-04 19:25 | 44.90190 | 19.98441 | 37081 ft | 426 kts | 2° |
| 2026-05-04 19:25 | 44.96107 | 19.98939 | 37083 ft | 426 kts | 2° |
| 2026-05-04 19:26 | 45.02024 | 19.99439 | 37078 ft | 426 kts | 2° |
| 2026-05-04 19:26 | 45.07942 | 19.99947 | 37080 ft | 426 kts | 2° |
| 2026-05-04 19:27 | 45.13860 | 20.00452 | 37081 ft | 426 kts | 2° |
| 2026-05-04 19:27 | 45.19780 | 20.00953 | 37081 ft | 427 kts | 2° |
| 2026-05-04 19:28 | 45.25715 | 20.01465 | 37079 ft | 428 kts | 2° |
| 2026-05-04 19:28 | 45.31665 | 20.01983 | 37079 ft | 428 kts | 2° |
| 2026-05-04 19:29 | 45.37611 | 20.02496 | 37076 ft | 428 kts | 2° |
| 2026-05-04 19:29 | 45.43557 | 20.03020 | 37074 ft | 428 kts | 2° |
| 2026-05-04 19:30 | 45.49504 | 20.03543 | 37079 ft | 428 kts | 2° |
| 2026-05-04 19:30 | 45.55449 | 20.04056 | 37042 ft | 429 kts | 2° |
| 2026-05-04 19:30 | 45.58432 | 20.04310 | 36550 ft | 429 kts | 2° |
| 2026-05-04 19:31 | 45.61407 | 20.04565 | 36088 ft | 427 kts | 2° |
| 2026-05-04 19:31 | 45.64369 | 20.04819 | 35635 ft | 426 kts | 2° |
| 2026-05-04 19:31 | 45.67333 | 20.05078 | 35187 ft | 425 kts | 3° |
| 2026-05-04 19:31 | 45.70281 | 20.05340 | 34745 ft | 423 kts | 3° |
| 2026-05-04 19:32 | 45.73198 | 20.05602 | 34309 ft | 419 kts | 3° |
| 2026-05-04 19:32 | 45.76095 | 20.05898 | 33891 ft | 415 kts | 4° |
| 2026-05-04 19:32 | 45.78921 | 20.06227 | 33618 ft | 412 kts | 4° |
| 2026-05-04 19:32 | 45.81772 | 20.06582 | 33353 ft | 410 kts | 4° |
| 2026-05-04 19:33 | 45.84608 | 20.06945 | 33076 ft | 409 kts | 4° |
| 2026-05-04 19:33 | 45.87438 | 20.07305 | 32799 ft | 408 kts | 4° |
| 2026-05-04 19:33 | 45.90262 | 20.07656 | 32535 ft | 407 kts | 4° |
| 2026-05-04 19:33 | 45.93079 | 20.07686 | 32270 ft | 404 kts | 352° |
| 2026-05-04 19:34 | 45.95771 | 20.06630 | 32019 ft | 402 kts | 336° |
| 2026-05-04 19:34 | 45.98287 | 20.04862 | 31756 ft | 401 kts | 334° |
| 2026-05-04 19:34 | 46.00776 | 20.03060 | 31500 ft | 400 kts | 334° |
| 2026-05-04 19:34 | 46.03253 | 20.01255 | 31266 ft | 398 kts | 334° |
| 2026-05-04 19:35 | 46.05717 | 19.99459 | 31010 ft | 397 kts | 334° |
| 2026-05-04 19:35 | 46.08172 | 19.97673 | 30762 ft | 395 kts | 334° |
| 2026-05-04 19:35 | 46.10619 | 19.95898 | 30519 ft | 393 kts | 334° |
| 2026-05-04 19:35 | 46.13060 | 19.94127 | 30274 ft | 392 kts | 334° |
| 2026-05-04 19:36 | 46.15490 | 19.92365 | 30015 ft | 390 kts | 334° |
| 2026-05-04 19:36 | 46.17907 | 19.90609 | 29722 ft | 389 kts | 334° |
| 2026-05-04 19:36 | 46.20317 | 19.88855 | 29444 ft | 387 kts | 334° |
| 2026-05-04 19:36 | 46.22718 | 19.87104 | 29166 ft | 386 kts | 334° |
| 2026-05-04 19:37 | 46.25108 | 19.85361 | 28890 ft | 385 kts | 334° |
| 2026-05-04 19:37 | 46.27491 | 19.83619 | 28615 ft | 383 kts | 334° |
| 2026-05-04 19:37 | 46.29868 | 19.81880 | 28344 ft | 382 kts | 334° |
| 2026-05-04 19:37 | 46.32239 | 19.80146 | 28072 ft | 381 kts | 334° |
| 2026-05-04 19:38 | 46.34601 | 19.78421 | 27812 ft | 380 kts | 334° |
| 2026-05-04 19:38 | 46.36956 | 19.76700 | 27545 ft | 379 kts | 334° |
| 2026-05-04 19:38 | 46.39304 | 19.74980 | 27283 ft | 378 kts | 334° |
| 2026-05-04 19:38 | 46.41645 | 19.73260 | 27022 ft | 376 kts | 334° |
| 2026-05-04 19:39 | 46.43977 | 19.71546 | 26764 ft | 375 kts | 334° |
| 2026-05-04 19:39 | 46.46303 | 19.69837 | 26509 ft | 374 kts | 334° |
| 2026-05-04 19:39 | 46.48624 | 19.68129 | 26246 ft | 374 kts | 333° |
| 2026-05-04 19:39 | 46.50943 | 19.66423 | 25992 ft | 373 kts | 333° |
| 2026-05-04 19:40 | 46.53258 | 19.64718 | 25766 ft | 373 kts | 333° |
| 2026-05-04 19:40 | 46.55566 | 19.63011 | 25518 ft | 372 kts | 333° |
| 2026-05-04 19:40 | 46.57863 | 19.61309 | 25269 ft | 371 kts | 333° |
| 2026-05-04 19:40 | 46.60156 | 19.59610 | 25035 ft | 367 kts | 333° |
| 2026-05-04 19:41 | 46.62416 | 19.57937 | 24688 ft | 363 kts | 333° |
| 2026-05-04 19:41 | 46.64654 | 19.56283 | 24295 ft | 360 kts | 333° |
| 2026-05-04 19:41 | 46.66848 | 19.54662 | 23901 ft | 357 kts | 333° |
| 2026-05-04 19:41 | 46.69088 | 19.53005 | 23468 ft | 355 kts | 333° |
| 2026-05-04 19:42 | 46.71276 | 19.51380 | 23044 ft | 351 kts | 333° |
| 2026-05-04 19:42 | 46.73411 | 19.49791 | 22643 ft | 347 kts | 333° |
| 2026-05-04 19:42 | 46.75550 | 19.48197 | 22237 ft | 344 kts | 333° |
| 2026-05-04 19:42 | 46.77671 | 19.46615 | 21827 ft | 340 kts | 333° |
| 2026-05-04 19:43 | 46.79769 | 19.45046 | 21426 ft | 337 kts | 333° |
| 2026-05-04 19:43 | 46.81845 | 19.43489 | 21024 ft | 334 kts | 333° |
| 2026-05-04 19:43 | 46.83906 | 19.41945 | 20623 ft | 332 kts | 333° |
| 2026-05-04 19:43 | 46.85952 | 19.40416 | 20225 ft | 329 kts | 333° |
| 2026-05-04 19:44 | 46.87986 | 19.38895 | 19825 ft | 327 kts | 333° |
| 2026-05-04 19:44 | 46.90009 | 19.37385 | 19429 ft | 326 kts | 333° |
| 2026-05-04 19:44 | 46.92022 | 19.35876 | 19033 ft | 324 kts | 333° |
| 2026-05-04 19:44 | 46.94023 | 19.34373 | 18638 ft | 323 kts | 333° |
| 2026-05-04 19:45 | 46.96020 | 19.32874 | 18217 ft | 322 kts | 333° |
| 2026-05-04 19:45 | 46.98005 | 19.31381 | 17804 ft | 320 kts | 333° |
| 2026-05-04 19:45 | 46.99976 | 19.29895 | 17403 ft | 317 kts | 333° |
| 2026-05-04 19:45 | 47.01934 | 19.28421 | 17026 ft | 315 kts | 333° |
| 2026-05-04 19:46 | 47.03878 | 19.26955 | 16638 ft | 314 kts | 332° |
| 2026-05-04 19:46 | 47.05813 | 19.25494 | 16260 ft | 312 kts | 332° |
| 2026-05-04 19:46 | 47.07743 | 19.24039 | 15850 ft | 312 kts | 332° |
| 2026-05-04 19:46 | 47.09674 | 19.22581 | 15425 ft | 317 kts | 332° |
| 2026-05-04 19:47 | 47.11646 | 19.21089 | 15002 ft | 318 kts | 332° |
| 2026-05-04 19:47 | 47.13613 | 19.19599 | 14592 ft | 318 kts | 332° |
| 2026-05-04 19:47 | 47.15577 | 19.18114 | 14192 ft | 317 kts | 332° |
| 2026-05-04 19:47 | 47.17541 | 19.16627 | 13756 ft | 317 kts | 332° |
| 2026-05-04 19:48 | 47.19496 | 19.15140 | 13328 ft | 316 kts | 332° |
| 2026-05-04 19:48 | 47.21448 | 19.13653 | 12887 ft | 316 kts | 332° |
| 2026-05-04 19:48 | 47.23396 | 19.12172 | 12451 ft | 315 kts | 332° |
| 2026-05-04 19:48 | 47.25340 | 19.10695 | 12022 ft | 314 kts | 331° |
| 2026-05-04 19:49 | 47.27281 | 19.09220 | 11586 ft | 313 kts | 331° |
| 2026-05-04 19:49 | 47.29213 | 19.07751 | 11180 ft | 313 kts | 331° |
| 2026-05-04 19:49 | 47.31144 | 19.06279 | 10769 ft | 312 kts | 331° |
| 2026-05-04 19:49 | 47.33065 | 19.04810 | 10367 ft | 311 kts | 331° |
| 2026-05-04 19:50 | 47.34982 | 19.03344 | 10047 ft | 306 kts | 331° |
| 2026-05-04 19:50 | 47.36834 | 19.01932 | 9991 ft | 293 kts | 331° |
| 2026-05-04 19:50 | 47.38611 | 19.00576 | 10004 ft | 286 kts | 330° |
| 2026-05-04 19:50 | 47.40379 | 18.99233 | 10006 ft | 286 kts | 332° |
| 2026-05-04 19:51 | 47.42292 | 18.98465 | 10005 ft | 289 kts | 358° |
| 2026-05-04 19:51 | 47.44257 | 18.99019 | 10007 ft | 290 kts | 25° |
| 2026-05-04 19:51 | 47.45982 | 19.00570 | 10006 ft | 292 kts | 35° |
| 2026-05-04 19:51 | 47.47645 | 19.02313 | 9665 ft | 293 kts | 36° |
| 2026-05-04 19:52 | 47.49303 | 19.04083 | 9275 ft | 293 kts | 36° |
| 2026-05-04 19:52 | 47.50951 | 19.05853 | 8893 ft | 292 kts | 36° |
| 2026-05-04 19:52 | 47.52595 | 19.07621 | 8512 ft | 292 kts | 36° |
| 2026-05-04 19:52 | 47.54235 | 19.09384 | 8122 ft | 291 kts | 36° |
| 2026-05-04 19:53 | 47.55874 | 19.11148 | 7760 ft | 291 kts | 36° |
| 2026-05-04 19:53 | 47.57511 | 19.12908 | 7397 ft | 290 kts | 36° |
| 2026-05-04 19:53 | 47.59139 | 19.14660 | 7034 ft | 289 kts | 36° |
| 2026-05-04 19:53 | 47.60767 | 19.16411 | 6675 ft | 288 kts | 36° |
| 2026-05-04 19:54 | 47.62387 | 19.18154 | 6308 ft | 287 kts | 36° |
| 2026-05-04 19:54 | 47.64162 | 19.19457 | 5918 ft | 285 kts | 12° |
| 2026-05-04 19:54 | 47.66114 | 19.19474 | 5548 ft | 281 kts | 343° |
| 2026-05-04 19:54 | 47.67835 | 19.18215 | 5181 ft | 275 kts | 320° |
| 2026-05-04 19:55 | 47.69313 | 19.16424 | 4806 ft | 274 kts | 316° |
| 2026-05-04 19:55 | 47.70762 | 19.14586 | 4423 ft | 274 kts | 316° |
| 2026-05-04 19:55 | 47.72214 | 19.12740 | 4062 ft | 274 kts | 316° |
| 2026-05-04 19:55 | 47.73567 | 19.10843 | 3990 ft | 260 kts | 302° |
| 2026-05-04 19:56 | 47.74245 | 19.08465 | 4003 ft | 252 kts | 273° |
| 2026-05-04 19:56 | 47.74038 | 19.05955 | 3999 ft | 244 kts | 243° |
| 2026-05-04 19:56 | 47.73014 | 19.04013 | 4000 ft | 240 kts | 214° |
| 2026-05-04 19:56 | 47.71472 | 19.03129 | 4001 ft | 240 kts | 190° |
| 2026-05-04 19:57 | 47.69809 | 19.02825 | 4001 ft | 241 kts | 186° |
| 2026-05-04 19:57 | 47.68118 | 19.02591 | 4001 ft | 241 kts | 186° |
| 2026-05-04 19:57 | 47.66467 | 19.02372 | 4003 ft | 241 kts | 186° |
| 2026-05-04 19:57 | 47.64796 | 19.02155 | 4002 ft | 241 kts | 186° |
| 2026-05-04 19:58 | 47.63125 | 19.01941 | 4004 ft | 241 kts | 186° |
| 2026-05-04 19:58 | 47.61453 | 19.01749 | 4005 ft | 242 kts | 183° |
| 2026-05-04 19:58 | 47.59791 | 19.02115 | 4003 ft | 243 kts | 162° |
| 2026-05-04 19:58 | 47.58375 | 19.03339 | 4023 ft | 230 kts | 142° |
| 2026-05-04 19:59 | 47.57308 | 19.05003 | 3982 ft | 214 kts | 136° |
| 2026-05-04 19:59 | 47.56337 | 19.06597 | 3846 ft | 204 kts | 136° |
| 2026-05-04 19:59 | 47.55390 | 19.08140 | 3609 ft | 201 kts | 137° |
| 2026-05-04 19:59 | 47.54455 | 19.09663 | 3361 ft | 199 kts | 136° |
| 2026-05-04 20:00 | 47.53528 | 19.11171 | 3099 ft | 197 kts | 137° |
| 2026-05-04 20:00 | 47.52615 | 19.12658 | 2859 ft | 192 kts | 137° |
| 2026-05-04 20:00 | 47.51739 | 19.14083 | 2595 ft | 182 kts | 137° |
| 2026-05-04 20:00 | 47.50909 | 19.15433 | 2354 ft | 173 kts | 137° |
| 2026-05-04 20:01 | 47.50116 | 19.16720 | 2131 ft | 165 kts | 137° |
| 2026-05-04 20:01 | 47.49362 | 19.17944 | 1939 ft | 154 kts | 137° |
| 2026-05-04 20:01 | 47.48677 | 19.19057 | 1734 ft | 142 kts | 138° |
| 2026-05-04 20:01 | 47.48018 | 19.20123 | 1538 ft | 139 kts | 137° |
| 2026-05-04 20:02 | 47.47370 | 19.21172 | 1360 ft | 138 kts | 135° |
| 2026-05-04 20:02 | 47.46722 | 19.22222 | 1174 ft | 138 kts | 134° |
| 2026-05-04 20:02 | 47.46074 | 19.23270 | 997 ft | 138 kts | 133° |
| 2026-05-04 20:02 | 47.45435 | 19.24314 | 796 ft | 136 kts | 131° |
| 2026-05-04 20:03 | 47.44797 | 19.25350 | 627 ft | 137 kts | 132° |
| 2026-05-04 20:03 | 47.44162 | 19.26360 | 474 ft | 125 kts | 133° |
| 2026-05-04 20:03 | 47.43662 | 19.27177 | 474 ft | 85 kts | 132° |
| 2026-05-04 20:03 | 47.43350 | 19.27684 | 466 ft | 60 kts | 132° |
| 2026-05-04 20:04 | 47.43167 | 19.27978 | 462 ft | 57 kts | 132° |
| 2026-05-04 20:04 | 47.42968 | 19.28294 | 457 ft | 26 kts | 139° |
| 2026-05-04 20:04 | 47.42832 | 19.28291 | 456 ft | 20 kts | 214° |
| 2026-05-04 20:04 | 47.42758 | 19.28132 | 457 ft | 16 kts | 266° |
| 2026-05-04 20:05 | 47.42801 | 19.28009 | 458 ft | 12 kts | 309° |
| 2026-05-04 20:05 | 47.42862 | 19.27909 | 458 ft | 14 kts | 314° |
| 2026-05-04 20:05 | 47.42934 | 19.27797 | 458 ft | 16 kts | 312° |
| 2026-05-04 20:05 | 47.43013 | 19.27668 | 458 ft | 18 kts | 312° |
| 2026-05-04 20:06 | 47.43102 | 19.27526 | 458 ft | 20 kts | 313° |
| 2026-05-04 20:06 | 47.43200 | 19.27370 | 458 ft | 22 kts | 313° |
| 2026-05-04 20:06 | 47.43304 | 19.27200 | 458 ft | 21 kts | 311° |
| 2026-05-04 20:06 | 47.43302 | 19.26999 | 458 ft | 21 kts | 254° |
| 2026-05-04 20:07 | 47.43356 | 19.26849 | 458 ft | 16 kts | 312° |
| 2026-05-04 20:07 | 47.43387 | 19.26754 | 458 ft | 8 kts | 243° |
| 2026-05-04 20:07 | 47.43352 | 19.26708 | 458 ft | 6 kts | 222° |
| 2026-05-04 20:07 | 47.43349 | 19.26703 | 458 ft | 0 kts | 222° |